createdAt,value
2022-12-04T00:00:52.750Z,51.00
2022-12-04T00:03:58.947Z,43.53
2022-12-04T00:07:02.392Z,46.00
2022-12-04T00:10:06.262Z,46.83
2022-12-04T00:13:09.681Z,42.90
2022-12-04T00:16:16.572Z,49.17
2022-12-04T00:19:20.022Z,47.00
2022-12-04T00:22:24.415Z,45.03
2022-12-04T00:25:28.015Z,63.17
2022-12-04T00:28:31.462Z,50.63
2022-12-04T00:31:35.100Z,39.72
2022-12-04T00:34:38.595Z,39.97
2022-12-04T00:37:42.334Z,40.00
2022-12-04T00:40:52.949Z,42.47
2022-12-04T00:43:56.432Z,41.13
2022-12-04T00:47:00.147Z,45.10
2022-12-04T00:50:03.759Z,40.83
2022-12-04T00:53:07.370Z,44.53
2022-12-04T00:56:14.932Z,47.20
2022-12-04T00:59:18.378Z,40.33
2022-12-04T01:02:22.107Z,38.92
2022-12-04T01:05:26.220Z,39.33
2022-12-04T01:08:29.791Z,37.83
2022-12-04T01:11:33.970Z,38.25
2022-12-04T01:14:37.702Z,39.20
2022-12-04T01:17:41.155Z,39.03
2022-12-04T01:20:49.789Z,48.08
2022-12-04T01:23:53.622Z,40.13
2022-12-04T01:26:57.359Z,41.38
2022-12-04T01:30:00.892Z,43.13
2022-12-04T01:33:04.345Z,41.10
2022-12-04T01:36:11.309Z,39.47
2022-12-04T01:39:15.194Z,39.38
2022-12-04T01:42:18.574Z,41.80
2022-12-04T01:45:43.334Z,42.17
2022-12-04T01:48:54.540Z,40.97
2022-12-04T01:52:09.182Z,35.10
2022-12-04T01:55:13.074Z,40.45
2022-12-04T01:58:21.799Z,50.15
2022-12-04T02:01:27.719Z,46.07
2022-12-04T02:04:33.447Z,41.95
2022-12-04T02:07:39.677Z,56.95
2022-12-04T02:10:58.163Z,52.53
2022-12-04T02:14:07.080Z,36.60
2022-12-04T02:17:19.729Z,33.33
2022-12-04T02:20:40.905Z,39.30
2022-12-04T02:24:14.395Z,47.00
2022-12-04T02:27:33.053Z,50.22
2022-12-04T02:30:41.486Z,90.28
2022-12-04T02:33:48.508Z,42.60
2022-12-04T02:37:01.904Z,152.27
2022-12-04T02:40:25.350Z,76.22
2022-12-04T02:43:38.114Z,53.55
2022-12-04T02:46:45.852Z,55.50
2022-12-04T02:50:00.266Z,50.73
2022-12-04T02:53:26.594Z,42.83
2022-12-04T02:56:34.772Z,37.83
2022-12-04T02:59:47.329Z,52.45
2022-12-04T03:03:02.730Z,41.65
2022-12-04T03:06:11.767Z,32.57
2022-12-04T03:09:39.708Z,32.70
2022-12-04T03:12:56.767Z,30.55
2022-12-04T03:16:05.869Z,37.22
2022-12-04T03:19:23.364Z,37.47
2022-12-04T03:22:27.868Z,110.17
2022-12-04T03:25:38.488Z,53.13
2022-12-04T03:28:56.899Z,42.90
2022-12-04T03:32:05.160Z,44.42
2022-12-04T03:35:30.922Z,34.97
2022-12-04T03:38:59.450Z,37.77
2022-12-04T03:42:20.216Z,36.80
2022-12-04T03:45:56.642Z,31.60
2022-12-04T03:49:19.038Z,30.90
2022-12-04T03:52:45.629Z,34.63
2022-12-04T03:56:01.396Z,35.78
2022-12-04T03:59:18.014Z,33.92
2022-12-04T04:02:25.510Z,42.55
2022-12-04T04:05:30.310Z,39.60
2022-12-04T04:08:39.167Z,46.67
2022-12-04T04:12:08.007Z,65.13
2022-12-04T04:15:34.881Z,85.93
2022-12-04T04:18:58.640Z,70.13
2022-12-04T04:22:23.971Z,61.87
2022-12-04T04:25:29.347Z,96.60
2022-12-04T04:28:36.079Z,64.05
2022-12-04T04:31:56.886Z,63.20
2022-12-04T04:35:19.399Z,66.65
2022-12-04T04:38:30.782Z,52.53
2022-12-04T04:41:43.448Z,47.25
2022-12-04T04:45:01.765Z,38.70
2022-12-04T04:48:20.495Z,50.20
2022-12-04T04:51:24.859Z,51.13
2022-12-04T04:54:30.779Z,53.38
2022-12-04T04:57:36.291Z,57.70
2022-12-04T05:00:40.587Z,32.25
2022-12-04T05:03:44.168Z,51.50
2022-12-04T05:06:49.080Z,53.63
2022-12-04T05:09:52.684Z,47.72
2022-12-04T05:12:56.103Z,50.97
2022-12-04T05:16:01.081Z,53.60
2022-12-04T05:19:23.093Z,56.60
2022-12-04T05:22:36.834Z,52.40
2022-12-04T05:25:40.138Z,50.28
2022-12-04T05:28:43.632Z,51.80
2022-12-04T05:31:47.276Z,59.57
2022-12-04T05:34:56.344Z,43.65
2022-12-04T05:38:00.013Z,44.50
2022-12-04T05:41:05.663Z,38.05
2022-12-04T05:44:09.034Z,37.85
2022-12-04T05:47:12.411Z,40.63
2022-12-04T05:50:15.840Z,38.03
2022-12-04T05:53:19.294Z,48.40
2022-12-04T05:56:22.800Z,39.13
2022-12-04T05:59:26.174Z,51.97
2022-12-04T06:02:29.584Z,99.65
2022-12-04T06:05:33.958Z,92.97
2022-12-04T06:08:37.286Z,76.10
2022-12-04T06:11:41.981Z,75.37
2022-12-04T06:14:45.371Z,61.97
2022-12-04T06:17:48.758Z,84.68
2022-12-04T06:20:52.186Z,62.17
2022-12-04T06:23:56.472Z,67.50
2022-12-04T06:30:24.118Z,50.55
2022-12-04T06:33:27.546Z,58.97
2022-12-04T06:36:31.369Z,54.53
2022-12-04T06:39:34.795Z,57.72
2022-12-04T06:42:38.205Z,66.97
2022-12-04T06:45:41.712Z,71.93
2022-12-04T06:48:45.679Z,66.27
2022-12-04T06:51:49.139Z,79.97
2022-12-04T06:54:52.586Z,59.40
2022-12-04T06:57:55.975Z,63.72
2022-12-04T07:00:59.582Z,49.72
2022-12-04T07:04:04.507Z,31.63
2022-12-04T07:07:10.205Z,37.58
2022-12-04T07:10:13.631Z,37.92
2022-12-04T07:13:17.166Z,34.60
2022-12-04T07:16:22.757Z,36.25
2022-12-04T07:19:26.196Z,42.07
2022-12-04T07:22:29.620Z,31.73
2022-12-04T07:25:32.939Z,33.15
2022-12-04T07:28:37.739Z,32.33
2022-12-04T07:31:41.169Z,32.65
2022-12-04T07:34:44.680Z,31.07
2022-12-04T07:37:48.076Z,28.63
2022-12-04T07:40:51.468Z,29.52
2022-12-04T07:43:55.299Z,34.45
2022-12-04T07:46:58.867Z,31.52
2022-12-04T07:50:02.533Z,32.40
2022-12-04T07:53:06.142Z,33.15
2022-12-04T07:56:11.869Z,33.50
2022-12-04T07:59:15.324Z,35.53
2022-12-04T08:02:19.059Z,32.42
2022-12-04T08:05:22.622Z,34.87
2022-12-04T08:08:25.982Z,30.55
2022-12-04T08:11:29.984Z,23.23
2022-12-04T08:14:33.411Z,24.10
2022-12-04T08:17:40.291Z,25.27
2022-12-04T08:20:44.152Z,20.87
2022-12-04T08:23:48.874Z,23.63
2022-12-04T08:26:52.347Z,23.10
2022-12-04T08:29:56.000Z,21.00
2022-12-04T08:32:59.535Z,25.33
2022-12-04T08:36:06.280Z,25.17
2022-12-04T08:39:12.896Z,21.15
2022-12-04T08:42:16.278Z,23.42
2022-12-04T08:45:19.635Z,24.52
2022-12-04T08:48:23.110Z,20.15
2022-12-04T08:51:31.847Z,21.53
2022-12-04T08:54:36.382Z,22.42
2022-12-04T08:57:39.974Z,22.42
2022-12-04T09:00:44.056Z,27.42
2022-12-04T09:03:47.626Z,21.35
2022-12-04T09:06:51.239Z,21.07
2022-12-04T09:09:54.829Z,19.65
2022-12-04T09:12:58.383Z,23.58
2022-12-04T09:16:05.895Z,21.52
2022-12-04T09:19:09.571Z,21.85
2022-12-04T09:22:13.326Z,22.03
2022-12-04T09:25:17.678Z,22.48
2022-12-04T09:28:21.981Z,25.55
2022-12-04T09:31:26.272Z,19.80
2022-12-04T09:34:29.868Z,23.23
2022-12-04T09:37:34.446Z,21.17
2022-12-04T09:40:48.424Z,20.55
2022-12-04T09:44:00.669Z,19.70
2022-12-04T09:47:11.768Z,21.35
2022-12-04T09:50:22.468Z,21.98
2022-12-04T09:53:32.487Z,18.93
2022-12-04T09:56:36.757Z,21.13
2022-12-04T09:59:40.431Z,18.58
2022-12-04T10:02:50.124Z,15.65
2022-12-04T10:05:58.110Z,18.90
2022-12-04T10:09:12.419Z,17.60
2022-12-04T10:12:22.885Z,15.48
2022-12-04T10:15:46.824Z,13.80
2022-12-04T10:19:12.902Z,13.05
2022-12-04T10:22:41.851Z,13.15
2022-12-04T10:25:45.534Z,14.73
2022-12-04T10:28:57.135Z,16.83
2022-12-04T10:32:21.507Z,13.35
2022-12-04T10:35:31.048Z,16.42
2022-12-04T10:39:05.558Z,13.13
2022-12-04T10:42:32.351Z,15.80
2022-12-04T10:45:35.887Z,16.98
2022-12-04T10:48:42.032Z,17.60
2022-12-04T10:51:46.465Z,14.77
2022-12-04T10:54:55.651Z,15.48
2022-12-04T10:57:59.107Z,14.40
2022-12-04T11:01:06.807Z,15.45
2022-12-04T11:04:24.949Z,15.98
2022-12-04T11:07:47.075Z,13.88
2022-12-04T11:11:02.250Z,14.57
2022-12-04T11:14:16.342Z,14.07
2022-12-04T11:17:20.524Z,13.38
2022-12-04T11:20:27.358Z,13.85
2022-12-04T11:23:42.314Z,11.73
2022-12-04T11:26:48.450Z,13.43
2022-12-04T11:29:52.457Z,12.57
2022-12-04T11:32:56.818Z,10.70
2022-12-04T11:36:03.531Z,13.85
2022-12-04T11:39:12.890Z,14.05
2022-12-04T11:42:25.371Z,15.02
2022-12-04T11:45:29.209Z,13.37
2022-12-04T11:48:42.092Z,14.52
2022-12-04T11:51:50.354Z,15.90
2022-12-04T11:55:00.052Z,14.05
2022-12-04T11:58:19.786Z,16.13
2022-12-04T12:01:57.716Z,14.60
2022-12-04T12:05:17.103Z,14.43
2022-12-04T12:08:32.780Z,14.93
2022-12-04T12:12:00.679Z,14.40
2022-12-04T12:15:41.450Z,13.50
2022-12-04T12:19:02.112Z,13.50
2022-12-04T12:22:30.055Z,11.98
2022-12-04T12:25:38.759Z,12.60
2022-12-04T12:28:57.740Z,12.18
2022-12-04T12:32:22.980Z,10.95
2022-12-04T12:35:39.809Z,14.03
2022-12-04T12:39:05.348Z,12.45
2022-12-04T12:42:20.799Z,11.10
2022-12-04T12:45:52.242Z,13.13
2022-12-04T12:49:28.204Z,13.35
2022-12-04T12:52:39.729Z,12.60
2022-12-04T12:56:00.358Z,13.35
2022-12-04T12:59:10.672Z,13.75
2022-12-04T13:02:27.057Z,11.75
2022-12-04T13:05:52.346Z,15.88
2022-12-04T13:09:12.427Z,12.03
2022-12-04T13:12:18.357Z,14.45
2022-12-04T13:15:26.935Z,12.18
2022-12-04T13:18:51.098Z,12.20
2022-12-04T13:22:17.364Z,12.88
2022-12-04T13:25:44.905Z,13.83
2022-12-04T13:29:13.675Z,12.38
2022-12-04T13:33:04.699Z,13.55
2022-12-04T13:36:41.828Z,12.07
2022-12-04T13:40:23.461Z,14.27
2022-12-04T13:43:29.741Z,11.67
2022-12-04T13:46:36.550Z,14.15
2022-12-04T13:49:46.153Z,15.57
2022-12-04T13:52:49.727Z,16.00
2022-12-04T13:55:56.978Z,23.92
2022-12-04T13:59:06.016Z,23.30
2022-12-04T14:02:38.450Z,29.10
2022-12-04T14:05:43.567Z,42.63
2022-12-04T14:08:47.368Z,41.40
2022-12-04T14:11:57.777Z,39.25
2022-12-04T14:15:22.216Z,31.43
2022-12-04T14:18:30.910Z,34.72
2022-12-04T14:21:41.948Z,43.13
2022-12-04T14:24:45.706Z,31.15
2022-12-04T14:27:54.601Z,23.85
2022-12-04T14:31:21.370Z,22.57
2022-12-04T14:34:29.540Z,25.80
2022-12-04T14:37:37.685Z,22.63
2022-12-04T14:40:46.960Z,28.38
2022-12-04T14:43:52.977Z,60.38
2022-12-04T14:47:08.490Z,57.30
2022-12-04T14:50:27.156Z,48.40
2022-12-04T14:53:53.223Z,52.80
2022-12-04T14:57:12.253Z,92.07
2022-12-04T15:00:18.458Z,48.90
2022-12-04T15:03:23.692Z,44.07
2022-12-04T15:06:30.523Z,46.13
2022-12-04T15:09:53.759Z,45.78
2022-12-04T15:12:57.513Z,38.92
2022-12-04T15:16:30.268Z,33.08
2022-12-04T15:19:33.880Z,45.40
2022-12-04T15:22:37.354Z,23.75
2022-12-04T15:25:55.871Z,16.88
2022-12-04T15:29:03.153Z,19.02
2022-12-04T15:32:12.076Z,17.67
2022-12-04T15:35:27.934Z,28.90
2022-12-04T15:38:32.261Z,29.70
2022-12-04T15:41:37.687Z,41.65
2022-12-04T15:44:55.219Z,32.17
2022-12-04T15:47:59.203Z,35.70
2022-12-04T15:51:06.428Z,22.67
2022-12-04T15:54:24.694Z,31.48
2022-12-04T15:57:36.482Z,46.08
2022-12-04T16:00:42.588Z,46.25
2022-12-04T16:03:51.416Z,41.15
2022-12-04T16:06:56.378Z,18.53
2022-12-04T16:10:04.129Z,18.48
2022-12-04T16:13:26.345Z,16.63
2022-12-04T16:16:30.364Z,16.33
2022-12-04T16:19:37.420Z,17.25
2022-12-04T16:22:42.515Z,15.77
2022-12-04T16:25:48.934Z,12.23
2022-12-04T16:28:55.830Z,16.13
2022-12-04T16:32:03.226Z,14.63
2022-12-04T16:35:07.475Z,15.25
2022-12-04T16:38:16.765Z,16.87
2022-12-04T16:41:21.620Z,13.10
2022-12-04T16:44:25.918Z,16.55
2022-12-04T16:47:29.427Z,24.85
2022-12-04T16:50:33.034Z,31.33
2022-12-04T16:53:37.865Z,35.20
2022-12-04T16:56:42.375Z,31.35
2022-12-04T16:59:46.092Z,24.42
2022-12-04T17:02:50.036Z,20.08
2022-12-04T17:05:53.968Z,24.92
2022-12-04T17:08:57.751Z,25.03
2022-12-04T17:12:01.181Z,24.95
2022-12-04T17:15:05.213Z,28.80
2022-12-04T17:18:12.954Z,25.13
2022-12-04T17:21:18.261Z,22.10
2022-12-04T17:24:21.865Z,22.13
2022-12-04T17:27:26.027Z,21.08
2022-12-04T17:30:34.430Z,19.30
2022-12-04T17:33:39.631Z,17.23
2022-12-04T17:36:43.099Z,15.98
2022-12-04T17:39:46.956Z,26.00
2022-12-04T17:42:50.632Z,17.52
2022-12-04T17:45:54.240Z,16.65
2022-12-04T17:49:00.527Z,17.40
2022-12-04T17:52:06.516Z,17.58
2022-12-04T17:55:10.243Z,17.67
2022-12-04T17:58:13.996Z,14.55
2022-12-04T18:01:20.338Z,15.57
2022-12-04T18:04:25.076Z,16.05
2022-12-04T18:07:30.677Z,14.88
2022-12-04T18:10:35.597Z,16.60
2022-12-04T18:13:39.927Z,15.35
2022-12-04T18:20:04.611Z,16.40
2022-12-04T18:23:09.553Z,13.88
2022-12-04T18:26:18.346Z,16.90
2022-12-04T18:29:25.242Z,31.90
2022-12-04T18:32:30.196Z,23.25
2022-12-04T18:35:33.551Z,28.30
2022-12-04T18:38:37.541Z,28.05
2022-12-04T18:41:42.027Z,22.90
2022-12-04T18:44:46.671Z,30.53
2022-12-04T18:47:50.292Z,34.10
2022-12-04T18:50:54.200Z,46.50
2022-12-04T18:54:01.167Z,46.83
2022-12-04T18:57:05.577Z,30.50
2022-12-04T19:00:09.980Z,114.33
2022-12-04T19:03:13.623Z,40.80
2022-12-04T19:06:18.102Z,39.30
2022-12-04T19:09:40.716Z,34.00
2022-12-04T19:12:44.973Z,59.90
2022-12-04T19:15:48.678Z,36.30
2022-12-04T19:18:52.438Z,55.53
2022-12-04T19:21:56.212Z,42.30
2022-12-04T19:24:59.779Z,37.88
2022-12-04T19:28:04.601Z,33.13
2022-12-04T19:31:19.585Z,28.33
2022-12-04T19:34:23.402Z,25.20
2022-12-04T19:37:27.628Z,25.52
2022-12-04T19:40:31.309Z,53.97
2022-12-04T19:43:35.168Z,50.80
2022-12-04T19:46:39.224Z,30.17
2022-12-04T19:49:43.121Z,28.23
2022-12-04T19:52:46.790Z,41.63
2022-12-04T19:55:50.344Z,40.40
2022-12-04T19:58:57.075Z,31.33
2022-12-04T20:02:00.788Z,32.80
2022-12-04T20:05:04.587Z,38.65
2022-12-04T20:11:15.686Z,26.75
2022-12-04T20:14:19.496Z,35.88
2022-12-04T20:17:23.227Z,37.20
2022-12-04T20:20:26.920Z,74.53
2022-12-04T20:23:30.580Z,53.53
2022-12-04T20:26:38.435Z,35.60
2022-12-04T20:29:43.168Z,41.63
2022-12-04T20:32:46.898Z,51.43
2022-12-04T20:35:50.706Z,70.53
2022-12-04T20:38:58.193Z,50.92
2022-12-04T20:42:01.875Z,47.20
2022-12-04T20:45:06.170Z,65.82
2022-12-04T20:48:09.942Z,66.77
2022-12-04T20:51:14.580Z,70.20
2022-12-04T20:54:20.787Z,58.25
2022-12-04T20:57:24.266Z,53.80
2022-12-04T21:00:28.749Z,51.33
2022-12-04T21:03:32.090Z,45.10
2022-12-04T21:06:40.582Z,37.47
2022-12-04T21:09:44.366Z,29.55
2022-12-04T21:13:06.319Z,28.83
2022-12-04T21:16:10.155Z,39.40
2022-12-04T21:19:16.751Z,52.73
2022-12-04T21:22:20.840Z,47.28
2022-12-04T21:25:25.380Z,48.90
2022-12-04T21:28:29.035Z,50.42
2022-12-04T21:31:33.405Z,33.47
2022-12-04T21:34:36.855Z,47.87
2022-12-04T21:37:40.269Z,55.70
2022-12-04T21:40:43.661Z,53.70
2022-12-04T21:43:46.992Z,44.30
2022-12-04T21:46:51.196Z,38.65
2022-12-04T21:49:54.913Z,45.87
2022-12-04T21:52:58.421Z,50.53
2022-12-04T21:56:01.757Z,55.17
2022-12-04T21:59:05.213Z,56.55
2022-12-04T22:02:10.132Z,47.78
2022-12-04T22:05:13.550Z,46.33
2022-12-04T22:08:17.023Z,41.55
2022-12-04T22:11:21.378Z,40.88
2022-12-04T22:14:24.686Z,42.10
2022-12-04T22:17:30.138Z,42.30
2022-12-04T22:20:33.906Z,53.40
2022-12-04T22:23:37.656Z,55.00
2022-12-04T22:26:41.110Z,61.88
2022-12-04T22:29:52.549Z,61.45
2022-12-04T22:32:55.944Z,58.97
2022-12-04T22:36:08.529Z,65.20
2022-12-04T22:39:11.982Z,79.20
2022-12-04T22:42:15.361Z,117.72
2022-12-04T22:45:18.917Z,80.60
2022-12-04T22:48:22.722Z,61.95
2022-12-04T22:51:27.190Z,56.47
2022-12-04T22:54:30.557Z,47.72
2022-12-04T22:57:35.036Z,39.53
2022-12-04T23:00:39.158Z,39.97
2022-12-04T23:03:42.690Z,63.05
2022-12-04T23:06:46.086Z,116.00
2022-12-04T23:09:49.624Z,54.45
2022-12-04T23:12:52.994Z,37.83
2022-12-04T23:15:56.399Z,46.13
2022-12-04T23:18:59.936Z,37.40
2022-12-04T23:22:03.327Z,40.43
2022-12-04T23:25:07.255Z,71.75
2022-12-04T23:28:10.655Z,53.67
2022-12-04T23:31:14.762Z,40.67
2022-12-04T23:34:18.215Z,43.28
2022-12-04T23:37:21.710Z,42.10
2022-12-04T23:40:25.204Z,63.20
2022-12-04T23:43:28.820Z,77.53
2022-12-04T23:46:33.853Z,68.45
2022-12-04T23:49:37.290Z,72.63
2022-12-04T23:52:40.968Z,40.33
2022-12-04T23:55:44.439Z,49.40
2022-12-04T23:58:49.791Z,54.83
